Marianne Danica — OWWO2 — position and weather

sailwx.info

Track history (hours):
 
Tides and Currents Weather Stations Pressure Air Temp Water Temp Dewpoint Dewpoint Depression Visibility Wind Speed Wind Dir Waves Ship Positions

Marianne Danica

Last reported at 2015-Apr-07 17:30 UTC. Time now 2015-Apr-28 19:46 UTC.
Position N 37°27' W 029°44'.
Warning: this ship's position is 21 days out of date.

Length 71 m; draft 3.5 m.

Type: Cargo ship. MMSI: 219544000.

Date/timePositionNaut miles runAvg speedWind from/ knotsBaromVisibWave heightAir tempDewpointWater temp
2015-Apr-07 17:30N 37°27' W 029°44'1111.5
2015-Apr-07 16:33N 37°33' W 029°32'1211.7
2015-Apr-07 15:33N 37°40' W 029°20'1111.1
2015-Apr-07 14:34N 37°45' W 029°08'1111.2
2015-Apr-07 13:33N 37°51' W 028°56'1111.3
2015-Apr-07 12:33N 37°56' W 028°43'1111.3
2015-Apr-07 11:34N 38°02' W 028°31'1111.4
2015-Apr-07 10:33N 38°06' W 028°17'1111.2
2015-Apr-07 09:33N 38°10' W 028°04'1211.6
2015-Apr-07 08:33N 38°16' W 027°51'1211.6
2015-Apr-07 07:33N 38°21' W 027°38'1111.0
2015-Apr-07 06:34N 38°24' W 027°24'1110.8
2015-Apr-07 05:33N 38°25' W 027°11'1410.7
2015-Apr-07 04:17N 38°28' W 026°54'1110.8
2015-Apr-07 03:16N 38°32' W 026°41'810.9
2015-Apr-07 02:34N 38°36' W 026°32'1110.8
2015-Apr-07 01:31N 38°41' W 026°19'  
2015-Apr-02 00:33N 53°34' W 004°05'1212.2
2015-Apr-01 23:33N 53°34' W 003°45'1111.4
2015-Apr-01 22:33N 53°33' W 003°26'9 9.2
2015-Apr-01 21:33N 53°32' W 003°10'9 8.6
2015-Apr-01 20:33N 53°25' W 003°01'4 4.0
2015-Apr-01 19:33N 53°21' W 002°59'0 0.0
2015-Apr-01 18:33N 53°21' W 002°59'0 0.0
2015-Apr-01 17:32N 53°21' W 002°59'0 0.0
2015-Apr-01 16:32N 53°21' W 002°59'0 0.0
2015-Apr-01 15:32N 53°21' W 002°59'0 0.0
2015-Apr-01 14:32N 53°21' W 002°59'0 0.0
2015-Apr-01 13:32N 53°21' W 002°59'0 0.0
2015-Apr-01 12:32N 53°21' W 002°59'0 0.0
2015-Apr-01 11:32N 53°21' W 002°59'0 0.0
2015-Apr-01 10:32N 53°21' W 002°59'0 0.0
2015-Apr-01 09:29N 53°21' W 002°59'0 0.0
2015-Apr-01 08:32N 53°21' W 002°59'0 0.0
2015-Apr-01 07:29N 53°21' W 002°59'0 0.0
2015-Apr-01 06:32N 53°21' W 002°59'0 0.0
2015-Apr-01 05:32N 53°21' W 002°59'0 0.0
2015-Apr-01 04:32N 53°21' W 002°59'0 0.0
2015-Apr-01 03:32N 53°21' W 002°59'0 0.0
2015-Apr-01 02:32N 53°21' W 002°59'0 0.0
2015-Apr-01 01:29N 53°21' W 002°59'0 0.0
2015-Apr-01 00:32N 53°21' W 002°59'0 0.0
2015-Mar-31 23:32N 53°21' W 002°59'0 0.0
2015-Mar-31 22:29N 53°21' W 002°59'0 0.0
2015-Mar-31 21:32N 53°21' W 002°59'0 0.0
2015-Mar-31 20:32N 53°21' W 002°59'0 0.0
2015-Mar-31 19:32N 53°21' W 002°59'0 0.0
2015-Mar-31 18:32N 53°21' W 002°59'0 0.0
2015-Mar-31 17:32N 53°21' W 002°59'0 0.0
2015-Mar-31 16:32N 53°21' W 002°59'0 0.0
2015-Mar-31 15:32N 53°21' W 002°59'0 0.0
2015-Mar-31 14:29N 53°21' W 002°59'0 0.0
2015-Mar-31 13:32N 53°21' W 002°59'0 0.0
2015-Mar-31 12:32N 53°21' W 002°59'0 0.0
2015-Mar-31 11:32N 53°21' W 002°59'0 0.0
2015-Mar-31 10:32N 53°21' W 002°59'0 0.0
2015-Mar-31 09:32N 53°21' W 002°59'0 0.0
2015-Mar-31 08:29N 53°21' W 002°59'0 0.0
2015-Mar-31 07:29N 53°21' W 002°59'  
Track history (hours):
 
Tides and Currents Weather Stations Pressure Air Temp Water Temp Dewpoint Dewpoint Depression Visibility Wind Speed Wind Dir Waves Ship Positions

Marianne Danica

Last reported at 2015-Apr-07 17:30 UTC. Time now 2015-Apr-28 19:46 UTC.
Position N 37°27' W 029°44'.
Warning: this ship's position is 21 days out of date.

Length 71 m; draft 3.5 m.

Type: Cargo ship. MMSI: 219544000.

Date/timePositionNaut miles runAvg speedWind from/ knotsBaromVisibWave heightAir tempDewpointWater temp
2015-Apr-07 17:30N 37°27' W 029°44'1111.5
2015-Apr-07 16:33N 37°33' W 029°32'1211.7
2015-Apr-07 15:33N 37°40' W 029°20'1111.1
2015-Apr-07 14:34N 37°45' W 029°08'1111.2
2015-Apr-07 13:33N 37°51' W 028°56'1111.3
2015-Apr-07 12:33N 37°56' W 028°43'1111.3
2015-Apr-07 11:34N 38°02' W 028°31'1111.4
2015-Apr-07 10:33N 38°06' W 028°17'1111.2
2015-Apr-07 09:33N 38°10' W 028°04'1211.6
2015-Apr-07 08:33N 38°16' W 027°51'1211.6
2015-Apr-07 07:33N 38°21' W 027°38'1111.0
2015-Apr-07 06:34N 38°24' W 027°24'1110.8
2015-Apr-07 05:33N 38°25' W 027°11'1410.7
2015-Apr-07 04:17N 38°28' W 026°54'1110.8
2015-Apr-07 03:16N 38°32' W 026°41'810.9
2015-Apr-07 02:34N 38°36' W 026°32'1110.8
2015-Apr-07 01:31N 38°41' W 026°19'  
2015-Apr-02 00:33N 53°34' W 004°05'1212.2
2015-Apr-01 23:33N 53°34' W 003°45'1111.4
2015-Apr-01 22:33N 53°33' W 003°26'9 9.2
2015-Apr-01 21:33N 53°32' W 003°10'9 8.6
2015-Apr-01 20:33N 53°25' W 003°01'4 4.0
2015-Apr-01 19:33N 53°21' W 002°59'0 0.0
2015-Apr-01 18:33N 53°21' W 002°59'0 0.0
2015-Apr-01 17:32N 53°21' W 002°59'0 0.0
2015-Apr-01 16:32N 53°21' W 002°59'0 0.0
2015-Apr-01 15:32N 53°21' W 002°59'0 0.0
2015-Apr-01 14:32N 53°21' W 002°59'0 0.0
2015-Apr-01 13:32N 53°21' W 002°59'0 0.0
2015-Apr-01 12:32N 53°21' W 002°59'0 0.0
2015-Apr-01 11:32N 53°21' W 002°59'0 0.0
2015-Apr-01 10:32N 53°21' W 002°59'0 0.0
2015-Apr-01 09:29N 53°21' W 002°59'0 0.0
2015-Apr-01 08:32N 53°21' W 002°59'0 0.0
2015-Apr-01 07:29N 53°21' W 002°59'0 0.0
2015-Apr-01 06:32N 53°21' W 002°59'0 0.0
2015-Apr-01 05:32N 53°21' W 002°59'0 0.0
2015-Apr-01 04:32N 53°21' W 002°59'0 0.0
2015-Apr-01 03:32N 53°21' W 002°59'0 0.0
2015-Apr-01 02:32N 53°21' W 002°59'0 0.0
2015-Apr-01 01:29N 53°21' W 002°59'0 0.0
2015-Apr-01 00:32N 53°21' W 002°59'0 0.0
2015-Mar-31 23:32N 53°21' W 002°59'0 0.0
2015-Mar-31 22:29N 53°21' W 002°59'0 0.0
2015-Mar-31 21:32N 53°21' W 002°59'0 0.0
2015-Mar-31 20:32N 53°21' W 002°59'0 0.0
2015-Mar-31 19:32N 53°21' W 002°59'0 0.0
2015-Mar-31 18:32N 53°21' W 002°59'0 0.0
2015-Mar-31 17:32N 53°21' W 002°59'0 0.0
2015-Mar-31 16:32N 53°21' W 002°59'0 0.0
2015-Mar-31 15:32N 53°21' W 002°59'0 0.0
2015-Mar-31 14:29N 53°21' W 002°59'0 0.0
2015-Mar-31 13:32N 53°21' W 002°59'0 0.0
2015-Mar-31 12:32N 53°21' W 002°59'0 0.0
2015-Mar-31 11:32N 53°21' W 002°59'0 0.0
2015-Mar-31 10:32N 53°21' W 002°59'0 0.0
2015-Mar-31 09:32N 53°21' W 002°59'0 0.0
2015-Mar-31 08:29N 53°21' W 002°59'0 0.0
2015-Mar-31 07:29N 53°21' W 002°59'  

Dump ship's entire track history